THY7NX LTFM-LTAC
Flight info
| Callsign | THY7NX |
|---|---|
| Flight time | 0h 53m |
| Altitude | 37000 |
| Route | VICEN1D/35L VICEN T380 ASMAP L333 LATGA |
| Aircraft | A321/M-SDE3FGHIRWY/LB1 |
Departure
| Time | 2026-05-04 19:03 |
|---|---|
| Airport | İstanbul Airport (LTFM) |
Arrival
| Time | 2026-05-04 19:57 |
|---|---|
| Airport | Esenboğa International Airport (LTAC) |
| Time | Latitude | Longitude | Altitude | Speed | Heading |
|---|---|---|---|---|---|
| 2026-05-04 18:01 | 41.26594 | 28.73758 | 334 ft | 0 kts | 269° |
| 2026-05-04 18:47 | 41.26594 | 28.73780 | 330 ft | 3 kts | 268° |
| 2026-05-04 18:47 | 41.26595 | 28.73807 | 332 ft | 3 kts | 265° |
| 2026-05-04 18:47 | 41.26598 | 28.73833 | 330 ft | 3 kts | 258° |
| 2026-05-04 18:47 | 41.26603 | 28.73859 | 330 ft | 3 kts | 242° |
| 2026-05-04 18:48 | 41.26613 | 28.73877 | 332 ft | 3 kts | 198° |
| 2026-05-04 18:48 | 41.26619 | 28.73880 | 330 ft | 0 kts | 179° |
| 2026-05-04 18:52 | 41.26613 | 28.73880 | 332 ft | 2 kts | 179° |
| 2026-05-04 18:52 | 41.26587 | 28.73881 | 332 ft | 6 kts | 179° |
| 2026-05-04 18:53 | 41.26541 | 28.73882 | 333 ft | 8 kts | 175° |
| 2026-05-04 18:53 | 41.26479 | 28.73906 | 331 ft | 11 kts | 159° |
| 2026-05-04 18:53 | 41.26415 | 28.73963 | 333 ft | 12 kts | 111° |
| 2026-05-04 18:53 | 41.26464 | 28.74026 | 333 ft | 12 kts | 4° |
| 2026-05-04 18:54 | 41.26549 | 28.74025 | 331 ft | 13 kts | 359° |
| 2026-05-04 18:54 | 41.26649 | 28.74022 | 332 ft | 15 kts | 359° |
| 2026-05-04 18:54 | 41.26760 | 28.74019 | 333 ft | 16 kts | 359° |
| 2026-05-04 18:54 | 41.26870 | 28.74015 | 332 ft | 15 kts | 359° |
| 2026-05-04 18:55 | 41.26956 | 28.74013 | 334 ft | 12 kts | 359° |
| 2026-05-04 18:55 | 41.27052 | 28.73889 | 334 ft | 13 kts | 270° |
| 2026-05-04 18:55 | 41.27051 | 28.73762 | 334 ft | 14 kts | 268° |
| 2026-05-04 18:56 | 41.27048 | 28.73625 | 333 ft | 15 kts | 268° |
| 2026-05-04 18:56 | 41.27046 | 28.73528 | 333 ft | 16 kts | 269° |
| 2026-05-04 18:56 | 41.27044 | 28.73374 | 334 ft | 17 kts | 269° |
| 2026-05-04 18:56 | 41.27042 | 28.73173 | 334 ft | 16 kts | 269° |
| 2026-05-04 18:57 | 41.27040 | 28.73039 | 334 ft | 13 kts | 269° |
| 2026-05-04 18:57 | 41.27003 | 28.72986 | 333 ft | 13 kts | 194° |
| 2026-05-04 18:57 | 41.26909 | 28.72988 | 333 ft | 14 kts | 179° |
| 2026-05-04 18:57 | 41.26786 | 28.72991 | 332 ft | 13 kts | 179° |
| 2026-05-04 18:58 | 41.26741 | 28.72990 | 333 ft | 7 kts | 188° |
| 2026-05-04 18:58 | 41.26723 | 28.72972 | 334 ft | 3 kts | 235° |
| 2026-05-04 18:58 | 41.26719 | 28.72952 | 331 ft | 0 kts | 262° |
| 2026-05-04 18:59 | 41.26719 | 28.72950 | 331 ft | 1 kts | 263° |
| 2026-05-04 18:59 | 41.26717 | 28.72926 | 333 ft | 4 kts | 263° |
| 2026-05-04 18:59 | 41.26715 | 28.72858 | 334 ft | 11 kts | 269° |
| 2026-05-04 19:00 | 41.26714 | 28.72745 | 331 ft | 12 kts | 269° |
| 2026-05-04 19:00 | 41.26713 | 28.72681 | 330 ft | 1 kts | 269° |
| 2026-05-04 19:00 | 41.26713 | 28.72674 | 330 ft | 2 kts | 269° |
| 2026-05-04 19:00 | 41.26713 | 28.72649 | 332 ft | 5 kts | 269° |
| 2026-05-04 19:01 | 41.26713 | 28.72580 | 330 ft | 9 kts | 269° |
| 2026-05-04 19:01 | 41.26744 | 28.72519 | 333 ft | 9 kts | 341° |
| 2026-05-04 19:01 | 41.26766 | 28.72515 | 331 ft | 0 kts | 355° |
| 2026-05-04 19:02 | 41.26768 | 28.72515 | 331 ft | 2 kts | 355° |
| 2026-05-04 19:02 | 41.26899 | 28.72509 | 330 ft | 51 kts | 358° |
| 2026-05-04 19:02 | 41.27498 | 28.72495 | 333 ft | 120 kts | 359° |
| 2026-05-04 19:03 | 41.28524 | 28.72471 | 372 ft | 169 kts | 358° |
| 2026-05-04 19:03 | 41.29689 | 28.72476 | 1086 ft | 165 kts | 359° |
| 2026-05-04 19:03 | 41.30863 | 28.72468 | 1731 ft | 176 kts | 0° |
| 2026-05-04 19:03 | 41.32155 | 28.72461 | 2036 ft | 197 kts | 0° |
| 2026-05-04 19:04 | 41.33600 | 28.72446 | 2337 ft | 219 kts | 1° |
| 2026-05-04 19:04 | 41.35202 | 28.72446 | 2802 ft | 235 kts | 1° |
| 2026-05-04 19:04 | 41.36843 | 28.72387 | 3616 ft | 239 kts | 351° |
| 2026-05-04 19:04 | 41.38287 | 28.71281 | 4524 ft | 249 kts | 314° |
| 2026-05-04 19:05 | 41.38946 | 28.69100 | 5417 ft | 266 kts | 280° |
| 2026-05-04 19:05 | 41.38804 | 28.66623 | 6373 ft | 270 kts | 270° |
| 2026-05-04 19:05 | 41.38548 | 28.64111 | 7071 ft | 277 kts | 270° |
| 2026-05-04 19:05 | 41.38329 | 28.61571 | 7745 ft | 282 kts | 272° |
| 2026-05-04 19:06 | 41.37979 | 28.58945 | 8443 ft | 297 kts | 255° |
| 2026-05-04 19:06 | 41.36800 | 28.56627 | 9114 ft | 316 kts | 224° |
| 2026-05-04 19:06 | 41.34843 | 28.55238 | 9791 ft | 325 kts | 191° |
| 2026-05-04 19:06 | 41.32576 | 28.54994 | 10288 ft | 336 kts | 178° |
| 2026-05-04 19:07 | 41.30147 | 28.55009 | 10481 ft | 358 kts | 176° |
| 2026-05-04 19:07 | 41.27654 | 28.55445 | 10783 ft | 370 kts | 162° |
| 2026-05-04 19:07 | 41.25217 | 28.56577 | 11407 ft | 371 kts | 151° |
| 2026-05-04 19:07 | 41.22967 | 28.58234 | 12112 ft | 369 kts | 141° |
| 2026-05-04 19:08 | 41.20981 | 28.60382 | 12797 ft | 367 kts | 131° |
| 2026-05-04 19:08 | 41.19132 | 28.62741 | 13487 ft | 370 kts | 131° |
| 2026-05-04 19:08 | 41.17272 | 28.65115 | 14137 ft | 373 kts | 131° |
| 2026-05-04 19:08 | 41.15391 | 28.67512 | 14749 ft | 377 kts | 131° |
| 2026-05-04 19:09 | 41.13497 | 28.69943 | 15325 ft | 379 kts | 128° |
| 2026-05-04 19:09 | 41.11827 | 28.72658 | 15913 ft | 377 kts | 118° |
| 2026-05-04 19:09 | 41.10414 | 28.75539 | 16470 ft | 379 kts | 117° |
| 2026-05-04 19:09 | 41.08971 | 28.78489 | 17081 ft | 382 kts | 116° |
| 2026-05-04 19:10 | 41.07518 | 28.81454 | 17686 ft | 386 kts | 116° |
| 2026-05-04 19:10 | 41.06045 | 28.84453 | 18277 ft | 389 kts | 116° |
| 2026-05-04 19:10 | 41.04550 | 28.87485 | 18791 ft | 392 kts | 116° |
| 2026-05-04 19:10 | 41.03048 | 28.90528 | 19310 ft | 395 kts | 116° |
| 2026-05-04 19:11 | 41.01390 | 28.93432 | 19822 ft | 405 kts | 126° |
| 2026-05-04 19:11 | 40.99378 | 28.96103 | 20359 ft | 411 kts | 129° |
| 2026-05-04 19:11 | 40.97320 | 28.98768 | 20841 ft | 415 kts | 129° |
| 2026-05-04 19:11 | 40.95252 | 29.01453 | 21353 ft | 418 kts | 129° |
| 2026-05-04 19:12 | 40.93166 | 29.04164 | 21867 ft | 421 kts | 129° |
| 2026-05-04 19:12 | 40.88980 | 29.09600 | 22857 ft | 427 kts | 129° |
| 2026-05-04 19:12 | 40.86894 | 29.12431 | 23339 ft | 425 kts | 123° |
| 2026-05-04 19:13 | 40.85183 | 29.15534 | 23765 ft | 420 kts | 114° |
| 2026-05-04 19:13 | 40.83880 | 29.18965 | 24153 ft | 414 kts | 104° |
| 2026-05-04 19:13 | 40.83021 | 29.22533 | 24534 ft | 409 kts | 97° |
| 2026-05-04 19:13 | 40.82312 | 29.26195 | 24967 ft | 411 kts | 97° |
| 2026-05-04 19:14 | 40.81590 | 29.29869 | 25370 ft | 413 kts | 97° |
| 2026-05-04 19:14 | 40.80872 | 29.33511 | 25767 ft | 414 kts | 96° |
| 2026-05-04 19:14 | 40.80332 | 29.37220 | 26137 ft | 412 kts | 92° |
| 2026-05-04 19:14 | 40.79862 | 29.40959 | 26511 ft | 413 kts | 92° |
| 2026-05-04 19:15 | 40.79422 | 29.44739 | 26886 ft | 415 kts | 91° |
| 2026-05-04 19:15 | 40.78999 | 29.48489 | 27019 ft | 414 kts | 91° |
| 2026-05-04 19:15 | 40.78573 | 29.52205 | 27061 ft | 403 kts | 91° |
| 2026-05-04 19:15 | 40.78146 | 29.55837 | 27063 ft | 398 kts | 91° |
| 2026-05-04 19:16 | 40.77706 | 29.59438 | 27055 ft | 397 kts | 92° |
| 2026-05-04 19:16 | 40.77263 | 29.62986 | 27051 ft | 396 kts | 92° |
| 2026-05-04 19:16 | 40.76809 | 29.66575 | 27046 ft | 396 kts | 92° |
| 2026-05-04 19:16 | 40.76354 | 29.70163 | 27054 ft | 396 kts | 92° |
| 2026-05-04 19:17 | 40.75895 | 29.73751 | 27058 ft | 396 kts | 92° |
| 2026-05-04 19:17 | 40.75434 | 29.77363 | 27057 ft | 396 kts | 92° |
| 2026-05-04 19:17 | 40.74983 | 29.80904 | 27048 ft | 396 kts | 92° |
| 2026-05-04 19:17 | 40.74528 | 29.84483 | 27089 ft | 396 kts | 92° |
| 2026-05-04 19:18 | 40.74068 | 29.88081 | 27087 ft | 396 kts | 92° |
| 2026-05-04 19:18 | 40.73606 | 29.91683 | 27083 ft | 396 kts | 92° |
| 2026-05-04 19:18 | 40.73147 | 29.95265 | 27078 ft | 396 kts | 92° |
| 2026-05-04 19:18 | 40.72685 | 29.98845 | 27074 ft | 396 kts | 92° |
| 2026-05-04 19:19 | 40.72228 | 30.02373 | 27069 ft | 396 kts | 92° |
| 2026-05-04 19:19 | 40.71754 | 30.05996 | 27067 ft | 396 kts | 92° |
| 2026-05-04 19:19 | 40.71287 | 30.09573 | 27065 ft | 396 kts | 92° |
| 2026-05-04 19:19 | 40.70827 | 30.13103 | 27097 ft | 396 kts | 92° |
| 2026-05-04 19:20 | 40.70359 | 30.16707 | 27085 ft | 396 kts | 92° |
| 2026-05-04 19:20 | 40.69899 | 30.20250 | 27083 ft | 396 kts | 92° |
| 2026-05-04 19:20 | 40.69427 | 30.23859 | 27067 ft | 396 kts | 92° |
| 2026-05-04 19:20 | 40.68956 | 30.27446 | 27060 ft | 396 kts | 92° |
| 2026-05-04 19:21 | 40.68487 | 30.31021 | 27060 ft | 396 kts | 92° |
| 2026-05-04 19:21 | 40.68017 | 30.34602 | 27048 ft | 396 kts | 92° |
| 2026-05-04 19:21 | 40.67552 | 30.38158 | 27050 ft | 396 kts | 92° |
| 2026-05-04 19:21 | 40.67080 | 30.41740 | 27074 ft | 397 kts | 92° |
| 2026-05-04 19:22 | 40.66603 | 30.45321 | 27058 ft | 397 kts | 92° |
| 2026-05-04 19:22 | 40.66125 | 30.48902 | 27052 ft | 397 kts | 92° |
| 2026-05-04 19:22 | 40.65647 | 30.52487 | 27033 ft | 397 kts | 92° |
| 2026-05-04 19:22 | 40.65171 | 30.56039 | 27026 ft | 397 kts | 92° |
| 2026-05-04 19:23 | 40.64691 | 30.59623 | 27027 ft | 397 kts | 92° |
| 2026-05-04 19:23 | 40.64210 | 30.63206 | 27018 ft | 397 kts | 92° |
| 2026-05-04 19:23 | 40.63727 | 30.66782 | 27013 ft | 397 kts | 92° |
| 2026-05-04 19:23 | 40.63240 | 30.70378 | 27006 ft | 398 kts | 93° |
| 2026-05-04 19:24 | 40.62563 | 30.73899 | 27008 ft | 402 kts | 97° |
| 2026-05-04 19:24 | 40.61808 | 30.77468 | 27011 ft | 402 kts | 97° |
| 2026-05-04 19:24 | 40.61055 | 30.81032 | 27010 ft | 403 kts | 97° |
| 2026-05-04 19:24 | 40.60313 | 30.84550 | 27005 ft | 402 kts | 97° |
| 2026-05-04 19:25 | 40.59561 | 30.88106 | 27015 ft | 403 kts | 97° |
| 2026-05-04 19:25 | 40.58807 | 30.91658 | 27011 ft | 403 kts | 97° |
| 2026-05-04 19:25 | 40.58051 | 30.95206 | 27017 ft | 402 kts | 97° |
| 2026-05-04 19:25 | 40.57304 | 30.98724 | 27037 ft | 403 kts | 97° |
| 2026-05-04 19:26 | 40.56544 | 31.02276 | 27035 ft | 403 kts | 98° |
| 2026-05-04 19:26 | 40.55783 | 31.05822 | 27032 ft | 403 kts | 98° |
| 2026-05-04 19:26 | 40.55020 | 31.09382 | 27022 ft | 403 kts | 98° |
| 2026-05-04 19:26 | 40.54256 | 31.12934 | 27014 ft | 402 kts | 98° |
| 2026-05-04 19:27 | 40.53494 | 31.16476 | 27014 ft | 402 kts | 98° |
| 2026-05-04 19:27 | 40.52731 | 31.20031 | 27006 ft | 402 kts | 98° |
| 2026-05-04 19:27 | 40.51972 | 31.23568 | 27005 ft | 403 kts | 98° |
| 2026-05-04 19:27 | 40.51212 | 31.27103 | 27046 ft | 402 kts | 97° |
| 2026-05-04 19:28 | 40.50452 | 31.30623 | 27033 ft | 402 kts | 98° |
| 2026-05-04 19:28 | 40.49686 | 31.34167 | 27024 ft | 402 kts | 98° |
| 2026-05-04 19:28 | 40.48919 | 31.37700 | 27014 ft | 401 kts | 98° |
| 2026-05-04 19:28 | 40.48152 | 31.41224 | 27010 ft | 401 kts | 98° |
| 2026-05-04 19:29 | 40.47393 | 31.44699 | 27001 ft | 400 kts | 98° |
| 2026-05-04 19:29 | 40.46624 | 31.48222 | 26997 ft | 400 kts | 98° |
| 2026-05-04 19:29 | 40.45855 | 31.51741 | 26998 ft | 400 kts | 98° |
| 2026-05-04 19:29 | 40.45088 | 31.55256 | 27029 ft | 399 kts | 98° |
| 2026-05-04 19:30 | 40.44325 | 31.58754 | 27016 ft | 399 kts | 98° |
| 2026-05-04 19:30 | 40.43557 | 31.62266 | 27014 ft | 398 kts | 98° |
| 2026-05-04 19:30 | 40.42801 | 31.65720 | 26998 ft | 398 kts | 98° |
| 2026-05-04 19:30 | 40.42033 | 31.69218 | 26995 ft | 398 kts | 98° |
| 2026-05-04 19:31 | 40.41266 | 31.72713 | 26994 ft | 398 kts | 98° |
| 2026-05-04 19:31 | 40.40495 | 31.76227 | 26991 ft | 398 kts | 98° |
| 2026-05-04 19:31 | 40.39736 | 31.79683 | 26979 ft | 398 kts | 98° |
| 2026-05-04 19:31 | 40.38961 | 31.83194 | 26977 ft | 398 kts | 98° |
| 2026-05-04 19:32 | 40.38188 | 31.86676 | 26992 ft | 398 kts | 98° |
| 2026-05-04 19:32 | 40.37420 | 31.90122 | 26982 ft | 397 kts | 98° |
| 2026-05-04 19:32 | 40.36640 | 31.93619 | 26967 ft | 397 kts | 98° |
| 2026-05-04 19:32 | 40.35866 | 31.97092 | 26973 ft | 397 kts | 98° |
| 2026-05-04 19:33 | 40.35087 | 32.00575 | 26959 ft | 397 kts | 98° |
| 2026-05-04 19:33 | 40.34308 | 32.04050 | 26954 ft | 397 kts | 98° |
| 2026-05-04 19:33 | 40.33677 | 32.07543 | 26960 ft | 389 kts | 90° |
| 2026-05-04 19:33 | 40.33488 | 32.10990 | 26960 ft | 380 kts | 81° |
| 2026-05-04 19:34 | 40.33730 | 32.14415 | 26955 ft | 373 kts | 74° |
| 2026-05-04 19:34 | 40.34136 | 32.17792 | 26993 ft | 375 kts | 75° |
| 2026-05-04 19:34 | 40.34535 | 32.21179 | 26975 ft | 376 kts | 75° |
| 2026-05-04 19:34 | 40.34925 | 32.24576 | 26968 ft | 377 kts | 75° |
| 2026-05-04 19:35 | 40.35308 | 32.27981 | 26959 ft | 378 kts | 75° |
| 2026-05-04 19:35 | 40.35674 | 32.31397 | 26956 ft | 380 kts | 78° |
| 2026-05-04 19:35 | 40.35697 | 32.34895 | 26949 ft | 388 kts | 88° |
| 2026-05-04 19:35 | 40.35229 | 32.38376 | 26950 ft | 397 kts | 97° |
| 2026-05-04 19:36 | 40.34534 | 32.41880 | 26943 ft | 397 kts | 97° |
| 2026-05-04 19:36 | 40.33843 | 32.45391 | 26942 ft | 397 kts | 97° |
| 2026-05-04 19:36 | 40.33154 | 32.48902 | 26939 ft | 397 kts | 97° |
| 2026-05-04 19:36 | 40.32471 | 32.52380 | 26945 ft | 387 kts | 98° |
| 2026-05-04 19:37 | 40.31757 | 32.55743 | 26720 ft | 381 kts | 104° |
| 2026-05-04 19:37 | 40.30677 | 32.58866 | 26390 ft | 382 kts | 115° |
| 2026-05-04 19:37 | 40.29111 | 32.61709 | 25955 ft | 389 kts | 127° |
| 2026-05-04 19:37 | 40.27007 | 32.63999 | 25452 ft | 399 kts | 144° |
| 2026-05-04 19:38 | 40.24457 | 32.65484 | 25036 ft | 406 kts | 161° |
| 2026-05-04 19:38 | 40.21648 | 32.65984 | 24630 ft | 410 kts | 179° |
| 2026-05-04 19:38 | 40.18819 | 32.65434 | 24226 ft | 411 kts | 192° |
| 2026-05-04 19:38 | 40.16047 | 32.64542 | 23823 ft | 409 kts | 192° |
| 2026-05-04 19:39 | 40.13291 | 32.63654 | 23424 ft | 406 kts | 191° |
| 2026-05-04 19:39 | 40.10519 | 32.63179 | 23056 ft | 397 kts | 177° |
| 2026-05-04 19:39 | 40.07862 | 32.63522 | 22848 ft | 378 kts | 165° |
| 2026-05-04 19:39 | 40.05392 | 32.64573 | 22513 ft | 367 kts | 153° |
| 2026-05-04 19:40 | 40.03232 | 32.66216 | 22088 ft | 360 kts | 140° |
| 2026-05-04 19:40 | 40.01290 | 32.68252 | 21630 ft | 357 kts | 138° |
| 2026-05-04 19:40 | 39.99342 | 32.70253 | 21174 ft | 355 kts | 144° |
| 2026-05-04 19:40 | 39.97159 | 32.71756 | 20731 ft | 355 kts | 157° |
| 2026-05-04 19:41 | 39.94758 | 32.72564 | 20284 ft | 356 kts | 171° |
| 2026-05-04 19:41 | 39.92285 | 32.72719 | 19826 ft | 355 kts | 177° |
| 2026-05-04 19:41 | 39.89850 | 32.72763 | 19406 ft | 353 kts | 177° |
| 2026-05-04 19:41 | 39.87400 | 32.72813 | 18988 ft | 351 kts | 177° |
| 2026-05-04 19:42 | 39.84950 | 32.72865 | 18563 ft | 348 kts | 177° |
| 2026-05-04 19:42 | 39.82532 | 32.72823 | 18137 ft | 347 kts | 185° |
| 2026-05-04 19:42 | 39.80194 | 32.72159 | 17682 ft | 347 kts | 198° |
| 2026-05-04 19:42 | 39.78039 | 32.70807 | 17412 ft | 340 kts | 212° |
| 2026-05-04 19:43 | 39.76133 | 32.69048 | 17274 ft | 329 kts | 212° |
| 2026-05-04 19:43 | 39.74113 | 32.67933 | 17135 ft | 313 kts | 186° |
| 2026-05-04 19:43 | 39.72003 | 32.68080 | 16964 ft | 297 kts | 160° |
| 2026-05-04 19:43 | 39.70237 | 32.69333 | 16647 ft | 287 kts | 134° |
| 2026-05-04 19:44 | 39.68997 | 32.71299 | 16255 ft | 284 kts | 123° |
| 2026-05-04 19:44 | 39.68275 | 32.72750 | 15892 ft | 282 kts | 112° |
| 2026-05-04 19:44 | 39.67980 | 32.75977 | 15211 ft | 273 kts | 74° |
| 2026-05-04 19:44 | 39.68477 | 32.77495 | 14860 ft | 271 kts | 55° |
| 2026-05-04 19:45 | 39.70375 | 32.79518 | 14208 ft | 269 kts | 31° |
| 2026-05-04 19:45 | 39.71943 | 32.80841 | 13718 ft | 268 kts | 37° |
| 2026-05-04 19:45 | 39.72959 | 32.81806 | 13351 ft | 267 kts | 38° |
| 2026-05-04 19:45 | 39.74437 | 32.83270 | 12826 ft | 266 kts | 38° |
| 2026-05-04 19:46 | 39.75878 | 32.84707 | 12376 ft | 263 kts | 38° |
| 2026-05-04 19:46 | 39.77333 | 32.86141 | 11928 ft | 259 kts | 38° |
| 2026-05-04 19:46 | 39.78777 | 32.87543 | 11487 ft | 256 kts | 37° |
| 2026-05-04 19:46 | 39.80192 | 32.88901 | 11062 ft | 254 kts | 37° |
| 2026-05-04 19:47 | 39.81616 | 32.90260 | 10633 ft | 252 kts | 38° |
| 2026-05-04 19:47 | 39.83026 | 32.91601 | 10204 ft | 249 kts | 38° |
| 2026-05-04 19:47 | 39.84421 | 32.92925 | 9812 ft | 247 kts | 38° |
| 2026-05-04 19:47 | 39.85794 | 32.94230 | 9426 ft | 243 kts | 37° |
| 2026-05-04 19:48 | 39.87144 | 32.95510 | 9071 ft | 235 kts | 37° |
| 2026-05-04 19:48 | 39.88540 | 32.96509 | 8714 ft | 232 kts | 14° |
| 2026-05-04 19:48 | 39.90143 | 32.96498 | 8372 ft | 232 kts | 350° |
| 2026-05-04 19:48 | 39.91694 | 32.95953 | 8060 ft | 231 kts | 335° |
| 2026-05-04 19:49 | 39.92877 | 32.94578 | 8001 ft | 233 kts | 302° |
| 2026-05-04 19:49 | 39.93324 | 32.92573 | 7832 ft | 233 kts | 271° |
| 2026-05-04 19:49 | 39.93223 | 32.90459 | 7442 ft | 234 kts | 267° |
| 2026-05-04 19:49 | 39.93065 | 32.88345 | 7116 ft | 232 kts | 266° |
| 2026-05-04 19:50 | 39.92886 | 32.86291 | 6827 ft | 228 kts | 266° |
| 2026-05-04 19:50 | 39.92698 | 32.84238 | 6502 ft | 226 kts | 269° |
| 2026-05-04 19:50 | 39.92942 | 32.82302 | 6181 ft | 216 kts | 298° |
| 2026-05-04 19:50 | 39.93684 | 32.80635 | 5846 ft | 211 kts | 305° |
| 2026-05-04 19:51 | 39.94513 | 32.79060 | 5519 ft | 208 kts | 311° |
| 2026-05-04 19:51 | 39.95654 | 32.78099 | 5402 ft | 190 kts | 346° |
| 2026-05-04 19:51 | 39.96900 | 32.78298 | 5261 ft | 179 kts | 26° |
| 2026-05-04 19:51 | 39.97705 | 32.79466 | 5169 ft | 179 kts | 63° |
| 2026-05-04 19:52 | 39.98022 | 32.81072 | 5125 ft | 185 kts | 75° |
| 2026-05-04 19:52 | 39.98289 | 32.82725 | 5130 ft | 187 kts | 75° |
| 2026-05-04 19:52 | 39.98557 | 32.84380 | 5124 ft | 188 kts | 75° |
| 2026-05-04 19:52 | 39.98825 | 32.86030 | 5125 ft | 187 kts | 75° |
| 2026-05-04 19:53 | 39.99117 | 32.87687 | 5118 ft | 186 kts | 67° |
| 2026-05-04 19:53 | 39.99767 | 32.89120 | 5131 ft | 181 kts | 43° |
| 2026-05-04 19:53 | 40.00732 | 32.90129 | 5129 ft | 181 kts | 33° |
| 2026-05-04 19:53 | 40.01747 | 32.91093 | 5084 ft | 183 kts | 34° |
| 2026-05-04 19:54 | 40.02781 | 32.92075 | 4899 ft | 183 kts | 34° |
| 2026-05-04 19:54 | 40.03775 | 32.93022 | 4654 ft | 169 kts | 33° |
| 2026-05-04 19:54 | 40.04706 | 32.93906 | 4412 ft | 164 kts | 34° |
| 2026-05-04 19:54 | 40.05628 | 32.94782 | 4185 ft | 162 kts | 33° |
| 2026-05-04 19:55 | 40.06521 | 32.95633 | 3986 ft | 161 kts | 34° |
| 2026-05-04 19:55 | 40.07423 | 32.96490 | 3796 ft | 159 kts | 33° |
| 2026-05-04 19:55 | 40.08321 | 32.97339 | 3552 ft | 160 kts | 32° |
| 2026-05-04 19:55 | 40.09236 | 32.98205 | 3351 ft | 161 kts | 33° |
| 2026-05-04 19:56 | 40.10136 | 32.99066 | 3158 ft | 160 kts | 34° |
| 2026-05-04 19:56 | 40.10984 | 32.99875 | 3122 ft | 133 kts | 36° |
| 2026-05-04 19:56 | 40.11586 | 33.00452 | 3138 ft | 84 kts | 36° |
| 2026-05-04 19:56 | 40.11967 | 33.00815 | 3147 ft | 53 kts | 36° |
| 2026-05-04 19:57 | 40.12177 | 33.01016 | 3153 ft | 30 kts | 34° |
| 2026-05-04 19:57 | 40.12369 | 33.01071 | 3157 ft | 26 kts | 6° |
| 2026-05-04 19:57 | 40.12493 | 33.01084 | 3160 ft | 12 kts | 349° |
| 2026-05-04 19:57 | 40.12487 | 33.01002 | 3158 ft | 13 kts | 220° |
| 2026-05-04 19:58 | 40.12403 | 33.00926 | 3155 ft | 17 kts | 216° |
| 2026-05-04 19:58 | 40.12296 | 33.00820 | 3153 ft | 22 kts | 217° |
| 2026-05-04 19:58 | 40.12164 | 33.00694 | 3149 ft | 25 kts | 216° |
| 2026-05-04 19:58 | 40.12017 | 33.00552 | 3146 ft | 26 kts | 216° |
| 2026-05-04 19:59 | 40.11881 | 33.00425 | 3142 ft | 24 kts | 216° |
| 2026-05-04 19:59 | 40.11745 | 33.00287 | 3138 ft | 25 kts | 219° |
| 2026-05-04 19:59 | 40.11626 | 33.00174 | 3135 ft | 13 kts | 213° |
| 2026-05-04 19:59 | 40.11638 | 33.00057 | 3128 ft | 20 kts | 306° |
| 2026-05-04 20:00 | 40.11734 | 32.99895 | 3120 ft | 24 kts | 308° |
| 2026-05-04 20:00 | 40.11799 | 32.99772 | 3113 ft | 15 kts | 297° |
| 2026-05-04 20:00 | 40.11788 | 32.99657 | 3113 ft | 14 kts | 263° |
| 2026-05-04 20:00 | 40.11782 | 32.99518 | 3113 ft | 17 kts | 265° |
| 2026-05-04 20:01 | 40.11759 | 32.99357 | 3113 ft | 19 kts | 254° |
| 2026-05-04 20:01 | 40.11731 | 32.99242 | 3113 ft | 7 kts | 250° |
| 2026-05-04 20:01 | 40.11699 | 32.99213 | 3113 ft | 4 kts | 179° |
| 2026-05-04 20:01 | 40.11670 | 32.99224 | 3113 ft | 3 kts | 158° |
| 2026-05-04 20:02 | 40.11655 | 32.99233 | 3113 ft | 2 kts | 156° |
| 2026-05-04 20:02 | 40.11654 | 32.99234 | 3113 ft | 0 kts | 156° |